Pacific Hope — 3FLH6 — position and weather

sailwx.info

Track history (hours):
 
Tides and Currents Weather Stations Pressure Air Temp Water Temp Dewpoint Dewpoint Depression Visibility Wind Speed Wind Dir Waves Ship Positions

Pacific Hope

Last reported at 2014-Oct-16 13:18 UTC. Time now 2014-Oct-24 13:35 UTC.
Position S 34°50' W 057°24'.
Warning: this ship's position is 8 days out of date.

Length 169 m; draft 10 m.

Type: Ship. MMSI: 351849000.

Date/timePositionNaut miles runAvg speedWind from/ knotsBaromVisibWave heightAir tempDewpointWater temp
2014-Oct-16 13:18S 34°50' W 057°24'912.1
2014-Oct-16 12:34S 34°46' W 057°34'1211.5
2014-Oct-16 11:33S 34°44' W 057°48'0 0.3
2014-Oct-16 10:31S 34°44' W 057°48'0 0.1
2014-Oct-16 09:31S 34°44' W 057°48'0 0.0
2014-Oct-16 08:31S 34°44' W 057°48'0 0.0
2014-Oct-16 07:31S 34°44' W 057°48'0 0.0
2014-Oct-16 06:31S 34°44' W 057°48'0 0.0
2014-Oct-16 05:31S 34°44' W 057°48'0 0.0
2014-Oct-16 04:31S 34°44' W 057°48'0 0.1
2014-Oct-16 03:31S 34°44' W 057°48'1 1.1
2014-Oct-16 02:34S 34°44' W 057°49'10 9.5
2014-Oct-16 01:34S 34°40' W 057°60'10 9.6
2014-Oct-16 00:34S 34°37' W 058°11'9 9.4
2014-Oct-15 23:33S 34°32' W 058°20'42 8.4
2014-Oct-15 18:33S 34°06' W 059°00'83 8.0
2014-Oct-15 08:13S 33°15' W 060°17'  
2014-Oct-12 07:33S 34°24' W 057°59'1211.6
2014-Oct-12 06:33S 34°36' W 057°57'10 9.7
2014-Oct-12 05:33S 34°44' W 057°50'9 8.8
2014-Oct-12 04:33S 34°45' W 057°40'  
Track history (hours):
 
Tides and Currents Weather Stations Pressure Air Temp Water Temp Dewpoint Dewpoint Depression Visibility Wind Speed Wind Dir Waves Ship Positions

Pacific Hope

Last reported at 2014-Oct-16 13:18 UTC. Time now 2014-Oct-24 13:35 UTC.
Position S 34°50' W 057°24'.
Warning: this ship's position is 8 days out of date.

Length 169 m; draft 10 m.

Type: Ship. MMSI: 351849000.

Date/timePositionNaut miles runAvg speedWind from/ knotsBaromVisibWave heightAir tempDewpointWater temp
2014-Oct-16 13:18S 34°50' W 057°24'912.1
2014-Oct-16 12:34S 34°46' W 057°34'1211.5
2014-Oct-16 11:33S 34°44' W 057°48'0 0.3
2014-Oct-16 10:31S 34°44' W 057°48'0 0.1
2014-Oct-16 09:31S 34°44' W 057°48'0 0.0
2014-Oct-16 08:31S 34°44' W 057°48'0 0.0
2014-Oct-16 07:31S 34°44' W 057°48'0 0.0
2014-Oct-16 06:31S 34°44' W 057°48'0 0.0
2014-Oct-16 05:31S 34°44' W 057°48'0 0.0
2014-Oct-16 04:31S 34°44' W 057°48'0 0.1
2014-Oct-16 03:31S 34°44' W 057°48'1 1.1
2014-Oct-16 02:34S 34°44' W 057°49'10 9.5
2014-Oct-16 01:34S 34°40' W 057°60'10 9.6
2014-Oct-16 00:34S 34°37' W 058°11'9 9.4
2014-Oct-15 23:33S 34°32' W 058°20'42 8.4
2014-Oct-15 18:33S 34°06' W 059°00'83 8.0
2014-Oct-15 08:13S 33°15' W 060°17'  
2014-Oct-12 07:33S 34°24' W 057°59'1211.6
2014-Oct-12 06:33S 34°36' W 057°57'10 9.7
2014-Oct-12 05:33S 34°44' W 057°50'9 8.8
2014-Oct-12 04:33S 34°45' W 057°40'  

Dump ship's entire track history